createdAt,value
2018-08-16T00:02:13.471Z,99.90
2018-08-16T00:04:41.696Z,99.90
2018-08-16T00:07:09.910Z,99.90
2018-08-16T00:09:38.148Z,99.90
2018-08-16T00:12:06.528Z,99.90
2018-08-16T00:14:34.733Z,99.90
2018-08-16T00:17:02.971Z,99.90
2018-08-16T00:19:31.161Z,99.90
2018-08-16T00:21:59.411Z,99.90
2018-08-16T00:24:27.638Z,99.90
2018-08-16T00:26:55.857Z,99.90
2018-08-16T00:29:24.082Z,99.90
2018-08-16T00:31:52.379Z,99.90
2018-08-16T00:34:20.551Z,99.90
2018-08-16T00:36:48.790Z,99.90
2018-08-16T00:39:16.961Z,99.90
2018-08-16T00:41:45.127Z,99.90
2018-08-16T00:44:13.276Z,99.90
2018-08-16T00:46:41.493Z,99.90
2018-08-16T00:49:09.780Z,99.90
2018-08-16T00:51:37.981Z,99.90
2018-08-16T00:54:06.300Z,99.90
2018-08-16T00:56:34.762Z,99.90
2018-08-16T00:59:02.998Z,99.90
2018-08-16T01:01:31.234Z,99.90
2018-08-16T01:03:59.452Z,99.90
2018-08-16T01:06:27.606Z,99.90
2018-08-16T01:08:55.757Z,99.90
2018-08-16T01:11:23.937Z,99.90
2018-08-16T01:13:52.521Z,99.90
2018-08-16T01:16:20.765Z,99.90
2018-08-16T01:18:49.393Z,99.90
2018-08-16T01:21:17.574Z,99.90
2018-08-16T01:23:45.783Z,99.90
2018-08-16T01:26:13.957Z,99.90
2018-08-16T01:28:42.147Z,99.90
2018-08-16T01:31:10.351Z,99.90
2018-08-16T01:33:38.565Z,99.90
2018-08-16T01:36:06.791Z,99.90
2018-08-16T01:38:35.011Z,99.90
2018-08-16T01:41:03.244Z,99.90
2018-08-16T01:43:31.438Z,99.90
2018-08-16T01:45:59.623Z,99.90
2018-08-16T01:48:27.842Z,99.90
2018-08-16T01:50:56.006Z,99.90
2018-08-16T01:53:24.174Z,99.90
2018-08-16T01:55:52.364Z,99.90
2018-08-16T01:58:20.579Z,99.90
2018-08-16T02:00:48.771Z,99.90
2018-08-16T02:03:16.998Z,99.90
2018-08-16T02:05:45.197Z,99.90
2018-08-16T02:08:13.456Z,99.90
2018-08-16T02:10:41.685Z,99.90
2018-08-16T02:13:09.902Z,99.90
2018-08-16T02:15:38.074Z,99.90
2018-08-16T02:18:06.859Z,99.90
2018-08-16T02:20:35.008Z,99.90
2018-08-16T02:23:03.178Z,99.90
2018-08-16T02:25:31.322Z,99.90
2018-08-16T02:27:59.506Z,99.90
2018-08-16T02:30:27.667Z,99.90
2018-08-16T02:32:55.820Z,99.90
2018-08-16T02:35:24.033Z,99.90
2018-08-16T02:37:52.196Z,99.90
2018-08-16T02:40:20.413Z,99.90
2018-08-16T02:42:48.582Z,99.90
2018-08-16T02:45:16.725Z,99.90
2018-08-16T02:47:44.958Z,99.90
2018-08-16T02:50:13.130Z,99.90
2018-08-16T02:52:41.713Z,99.90
2018-08-16T02:55:09.910Z,99.90
2018-08-16T02:57:38.159Z,99.90
2018-08-16T03:00:08.182Z,99.90
2018-08-16T03:02:36.439Z,99.90
2018-08-16T03:05:05.229Z,99.90
2018-08-16T03:07:33.503Z,99.90
2018-08-16T03:10:01.739Z,99.90
2018-08-16T03:12:29.964Z,99.90
2018-08-16T03:14:58.163Z,99.90
2018-08-16T03:17:26.374Z,99.90
2018-08-16T03:19:54.642Z,99.90
2018-08-16T03:22:22.851Z,99.90
2018-08-16T03:24:51.067Z,99.90
2018-08-16T03:27:19.258Z,99.90
2018-08-16T03:29:47.474Z,99.90
2018-08-16T03:32:15.662Z,99.90
2018-08-16T03:34:43.874Z,99.90
2018-08-16T03:37:12.100Z,99.90
2018-08-16T03:39:40.294Z,99.90
2018-08-16T03:42:08.483Z,99.90
2018-08-16T03:44:36.657Z,99.90
2018-08-16T03:47:04.814Z,99.90
2018-08-16T03:49:32.982Z,99.90
2018-08-16T03:52:01.173Z,99.90
2018-08-16T03:54:29.479Z,99.90
2018-08-16T03:56:57.892Z,99.90
2018-08-16T03:59:26.181Z,99.90
2018-08-16T04:01:54.523Z,99.90
2018-08-16T04:04:22.914Z,99.90
2018-08-16T04:06:51.369Z,99.90
2018-08-16T04:09:19.719Z,99.90
2018-08-16T04:11:48.038Z,99.90
2018-08-16T04:14:16.559Z,99.90
2018-08-16T04:16:45.013Z,99.90
2018-08-16T04:19:13.362Z,99.90
2018-08-16T04:21:41.758Z,99.90
2018-08-16T04:24:10.135Z,99.90
2018-08-16T04:26:38.465Z,99.90
2018-08-16T04:29:06.866Z,99.90
2018-08-16T04:31:35.250Z,99.90
2018-08-16T04:34:03.611Z,99.90
2018-08-16T04:36:31.913Z,99.90
2018-08-16T04:39:00.268Z,99.90
2018-08-16T04:41:28.663Z,99.90
2018-08-16T04:43:57.034Z,99.90
2018-08-16T04:46:25.448Z,99.90
2018-08-16T04:48:53.823Z,99.90
2018-08-16T04:51:22.255Z,99.90
2018-08-16T04:53:50.675Z,99.90
2018-08-16T04:56:19.015Z,99.90
2018-08-16T04:58:47.400Z,99.90
2018-08-16T05:01:15.816Z,99.90
2018-08-16T05:03:44.258Z,99.90
2018-08-16T05:06:12.739Z,99.90
2018-08-16T05:08:42.278Z,99.90
2018-08-16T05:11:10.697Z,99.90
2018-08-16T05:13:39.067Z,99.90
2018-08-16T05:16:07.433Z,99.90
2018-08-16T05:18:35.941Z,99.90
2018-08-16T05:21:04.342Z,99.90
2018-08-16T05:23:32.685Z,99.90
2018-08-16T05:26:01.075Z,99.90
2018-08-16T05:28:29.562Z,99.90
2018-08-16T05:30:57.930Z,99.90
2018-08-16T05:33:26.294Z,99.90
2018-08-16T05:35:54.651Z,99.90
2018-08-16T05:38:23.103Z,99.90
2018-08-16T05:40:51.503Z,99.90
2018-08-16T05:43:19.963Z,99.90
2018-08-16T05:45:48.363Z,99.90
2018-08-16T05:48:16.808Z,99.90
2018-08-16T05:50:45.226Z,99.90
2018-08-16T05:53:13.527Z,99.90
2018-08-16T05:55:41.935Z,99.90
2018-08-16T05:58:10.338Z,99.90
2018-08-16T06:00:38.733Z,99.90
2018-08-16T06:03:07.073Z,99.90
2018-08-16T06:05:35.532Z,99.90
2018-08-16T06:08:04.008Z,99.90
2018-08-16T06:10:32.318Z,99.90
2018-08-16T06:13:00.836Z,99.90
2018-08-16T06:15:29.330Z,99.90
2018-08-16T06:17:57.699Z,99.90
2018-08-16T06:20:26.067Z,99.90
2018-08-16T06:22:54.469Z,99.90
2018-08-16T06:25:22.912Z,99.90
2018-08-16T06:27:52.119Z,99.90
2018-08-16T06:30:20.680Z,99.90
2018-08-16T06:32:49.039Z,99.90
2018-08-16T06:35:17.411Z,99.90
2018-08-16T06:37:45.755Z,99.90
2018-08-16T06:40:16.779Z,99.90
2018-08-16T06:42:46.047Z,99.90
2018-08-16T06:45:14.487Z,99.90
2018-08-16T06:47:42.855Z,99.90
2018-08-16T06:50:11.220Z,99.90
2018-08-16T06:52:39.627Z,99.90
2018-08-16T06:55:08.887Z,99.90
2018-08-16T06:57:37.223Z,99.90
2018-08-16T07:00:06.464Z,99.90
2018-08-16T07:02:34.883Z,99.90
2018-08-16T07:05:03.291Z,99.90
2018-08-16T07:07:32.408Z,99.90
2018-08-16T07:10:00.798Z,99.90
2018-08-16T07:12:29.242Z,99.90
2018-08-16T07:14:57.638Z,99.90
2018-08-16T07:17:26.050Z,99.90
2018-08-16T07:19:54.478Z,99.90
2018-08-16T07:22:22.868Z,99.90
2018-08-16T07:24:51.406Z,99.90
2018-08-16T07:27:19.691Z,99.40
2018-08-16T07:29:48.150Z,98.10
2018-08-16T07:32:16.575Z,99.90
2018-08-16T07:34:45.036Z,99.80
2018-08-16T07:37:13.488Z,96.50
2018-08-16T07:39:42.033Z,98.30
2018-08-16T07:42:10.575Z,96.40
2018-08-16T07:44:39.024Z,93.00
2018-08-16T07:47:07.378Z,91.70
2018-08-16T07:49:35.842Z,90.10
2018-08-16T07:52:04.553Z,90.60
2018-08-16T07:54:33.007Z,92.60
2018-08-16T07:57:01.497Z,93.00
2018-08-16T07:59:29.944Z,93.50
2018-08-16T08:01:58.263Z,92.50
2018-08-16T08:04:26.660Z,91.30
2018-08-16T08:06:55.086Z,90.00
2018-08-16T08:09:23.692Z,87.60
2018-08-16T08:11:51.987Z,83.30
2018-08-16T08:14:20.363Z,86.30
2018-08-16T08:16:48.718Z,90.00
2018-08-16T08:19:17.163Z,86.80
2018-08-16T08:21:45.641Z,87.80
2018-08-16T08:24:14.240Z,84.20
2018-08-16T08:26:42.809Z,79.90
2018-08-16T08:29:11.260Z,78.40
2018-08-16T08:31:39.825Z,77.10
2018-08-16T08:34:08.294Z,79.80
2018-08-16T08:36:47.906Z,80.70
2018-08-16T08:39:16.302Z,79.80
2018-08-16T08:41:44.722Z,81.40
2018-08-16T08:44:15.658Z,80.30
2018-08-16T08:46:44.137Z,73.60
2018-08-16T08:49:12.544Z,78.40
2018-08-16T08:51:40.917Z,80.60
2018-08-16T08:54:54.426Z,74.20
2018-08-16T08:57:34.969Z,72.90
2018-08-16T09:00:03.376Z,68.20
2018-08-16T09:02:31.838Z,66.80
2018-08-16T09:05:00.376Z,66.90
2018-08-16T09:07:28.818Z,70.10
2018-08-16T09:11:07.987Z,69.80
2018-08-16T09:13:47.705Z,69.60
2018-08-16T09:16:27.258Z,68.20
2018-08-16T09:18:57.057Z,70.20
2018-08-16T09:21:25.610Z,73.40
2018-08-16T09:23:53.873Z,68.60
2018-08-16T09:26:27.910Z,67.10
2018-08-16T09:28:56.123Z,67.10
2018-08-16T09:31:35.924Z,67.90
2018-08-16T09:34:14.330Z,65.10
2018-08-16T09:36:42.544Z,64.40
2018-08-16T09:39:10.765Z,64.50
2018-08-16T09:41:39.074Z,65.30
2018-08-16T09:44:07.377Z,65.70
2018-08-16T09:46:58.295Z,66.10
2018-08-16T09:49:26.830Z,65.40
2018-08-16T09:51:55.222Z,62.70
2018-08-16T09:54:23.485Z,68.70
2018-08-16T09:56:52.267Z,74.00
2018-08-16T09:59:20.534Z,75.40
2018-08-16T10:01:49.055Z,68.40
2018-08-16T10:04:17.297Z,64.30
2018-08-16T10:06:45.898Z,63.50
2018-08-16T10:09:19.266Z,63.40
2018-08-16T10:11:47.872Z,65.00
2018-08-16T10:14:16.343Z,62.50
2018-08-16T10:16:44.565Z,57.60
2018-08-16T10:19:12.797Z,59.60
2018-08-16T10:21:41.126Z,61.50
2018-08-16T10:24:09.365Z,61.00
2018-08-16T10:26:37.643Z,61.20
2018-08-16T10:29:06.591Z,60.30
2018-08-16T10:31:34.818Z,60.90
2018-08-16T10:34:03.134Z,60.70
2018-08-16T10:36:31.393Z,56.70
2018-08-16T10:38:59.632Z,54.60
2018-08-16T10:41:28.310Z,54.60
2018-08-16T10:43:56.580Z,53.00
2018-08-16T10:46:24.818Z,54.20
2018-08-16T10:48:53.035Z,52.90
2018-08-16T10:51:21.257Z,56.70
2018-08-16T10:53:49.510Z,63.00
2018-08-16T10:56:17.755Z,64.60
2018-08-16T10:58:45.943Z,63.20
2018-08-16T11:01:14.275Z,58.20
2018-08-16T11:03:42.447Z,53.60
2018-08-16T11:06:10.712Z,51.10
2018-08-16T11:08:38.982Z,50.90
2018-08-16T11:11:07.387Z,50.10
2018-08-16T11:13:35.671Z,45.40
2018-08-16T11:16:03.893Z,45.60
2018-08-16T11:18:32.189Z,45.20
2018-08-16T11:21:00.435Z,47.90
2018-08-16T11:23:28.870Z,47.00
2018-08-16T11:25:57.187Z,47.30
2018-08-16T11:28:25.732Z,46.40
2018-08-16T11:30:54.161Z,43.10
2018-08-16T11:33:22.607Z,43.20
2018-08-16T11:35:50.983Z,42.60
2018-08-16T11:38:19.479Z,40.90
2018-08-16T11:40:48.129Z,41.20
2018-08-16T11:43:16.344Z,43.90
2018-08-16T11:45:44.671Z,44.90
2018-08-16T11:48:12.949Z,42.60
2018-08-16T11:50:41.335Z,41.70
2018-08-16T11:53:09.979Z,42.60
2018-08-16T11:55:38.376Z,39.70
2018-08-16T11:58:06.710Z,41.00
2018-08-16T12:00:35.173Z,43.10
2018-08-16T12:03:03.650Z,44.70
2018-08-16T12:05:32.069Z,42.70
2018-08-16T12:08:00.474Z,40.90
2018-08-16T12:10:28.997Z,40.80
2018-08-16T12:12:57.371Z,42.80
2018-08-16T12:15:25.920Z,45.30
2018-08-16T12:17:54.332Z,47.70
2018-08-16T12:20:22.707Z,42.50
2018-08-16T12:22:51.185Z,40.00
2018-08-16T12:25:19.543Z,39.10
2018-08-16T12:27:47.886Z,37.60
2018-08-16T12:30:16.215Z,37.00
2018-08-16T12:32:44.578Z,39.70
2018-08-16T12:35:13.016Z,37.70
2018-08-16T12:37:41.310Z,36.80
2018-08-16T12:40:09.684Z,36.20
2018-08-16T12:42:38.169Z,35.30
2018-08-16T12:45:06.792Z,35.80
2018-08-16T12:47:35.304Z,40.50
2018-08-16T12:50:03.727Z,41.80
2018-08-16T12:52:32.061Z,40.00
2018-08-16T12:55:00.524Z,42.90
2018-08-16T12:57:28.942Z,40.00
2018-08-16T12:59:57.311Z,40.10
2018-08-16T13:02:25.753Z,39.70
2018-08-16T13:04:54.313Z,40.20
2018-08-16T13:07:22.799Z,41.70
2018-08-16T13:09:51.162Z,42.70
2018-08-16T13:12:19.506Z,43.40
2018-08-16T13:14:47.941Z,45.20
2018-08-16T13:17:16.301Z,44.90
2018-08-16T13:19:44.895Z,44.60
2018-08-16T13:22:13.261Z,42.90
2018-08-16T13:24:41.579Z,41.50
2018-08-16T13:27:09.944Z,42.20
2018-08-16T13:29:38.261Z,44.30
2018-08-16T13:32:06.919Z,46.30
2018-08-16T13:34:35.429Z,45.80
2018-08-16T13:37:03.922Z,44.10
2018-08-16T13:39:32.298Z,45.70
2018-08-16T13:42:00.661Z,46.40
2018-08-16T13:44:29.183Z,47.90
2018-08-16T13:46:57.543Z,46.80
2018-08-16T13:49:25.976Z,47.50
2018-08-16T13:51:54.278Z,46.30
2018-08-16T13:54:22.671Z,45.40
2018-08-16T13:56:51.072Z,45.40
2018-08-16T13:59:19.436Z,46.70
2018-08-16T14:01:47.917Z,44.80
2018-08-16T14:04:16.378Z,45.70
2018-08-16T14:06:44.911Z,45.80
2018-08-16T14:09:13.387Z,44.40
2018-08-16T14:11:41.895Z,45.50
2018-08-16T14:14:10.240Z,44.40
2018-08-16T14:16:38.726Z,44.10
2018-08-16T14:19:07.236Z,43.10
2018-08-16T14:21:35.695Z,44.20
2018-08-16T14:24:04.130Z,45.00
2018-08-16T14:26:32.558Z,43.20
2018-08-16T14:29:01.039Z,44.10
2018-08-16T14:31:29.471Z,45.70
2018-08-16T14:33:57.903Z,46.90
2018-08-16T14:36:26.291Z,47.10
2018-08-16T14:38:54.679Z,46.60
2018-08-16T14:41:23.100Z,44.80
2018-08-16T14:43:51.515Z,46.40
2018-08-16T14:46:20.044Z,47.20
2018-08-16T14:48:48.363Z,47.80
2018-08-16T14:51:16.729Z,47.40
2018-08-16T14:53:45.068Z,45.60
2018-08-16T14:56:13.689Z,46.20
2018-08-16T14:58:42.164Z,46.60
2018-08-16T15:01:10.619Z,47.10
2018-08-16T15:03:39.036Z,47.90
2018-08-16T15:06:07.695Z,47.30
2018-08-16T15:08:36.107Z,46.90
2018-08-16T15:11:04.715Z,46.50
2018-08-16T15:13:33.102Z,45.60
2018-08-16T15:16:02.572Z,45.40
2018-08-16T15:18:31.078Z,45.10
2018-08-16T15:20:59.455Z,45.70
2018-08-16T15:23:28.095Z,46.50
2018-08-16T15:25:56.520Z,46.90
2018-08-16T15:28:24.804Z,45.50
2018-08-16T15:30:53.187Z,46.70
2018-08-16T15:33:21.542Z,47.10
2018-08-16T15:35:50.014Z,46.70
2018-08-16T15:38:18.523Z,46.50
2018-08-16T15:40:47.035Z,47.20
2018-08-16T15:43:15.429Z,47.70
2018-08-16T15:45:43.783Z,47.90
2018-08-16T15:48:13.215Z,47.60
2018-08-16T15:50:41.877Z,49.20
2018-08-16T15:53:10.647Z,47.80
2018-08-16T15:55:40.551Z,47.30
2018-08-16T15:58:10.075Z,47.20
2018-08-16T16:00:38.535Z,47.30
2018-08-16T16:03:07.053Z,47.20
2018-08-16T16:05:35.629Z,46.80
2018-08-16T16:08:03.973Z,47.30
2018-08-16T16:10:32.419Z,47.20
2018-08-16T16:13:00.894Z,47.30
2018-08-16T16:15:29.307Z,46.60
2018-08-16T16:17:57.840Z,47.10
2018-08-16T16:20:26.420Z,48.20
2018-08-16T16:23:01.454Z,46.60
2018-08-16T16:25:30.094Z,47.30
2018-08-16T16:27:58.474Z,47.00
2018-08-16T16:30:26.892Z,47.10
2018-08-16T16:32:55.276Z,47.70
2018-08-16T16:35:23.655Z,48.10
2018-08-16T16:37:52.107Z,49.30
2018-08-16T16:40:20.575Z,48.90
2018-08-16T16:42:48.946Z,48.30
2018-08-16T16:45:17.343Z,48.20
2018-08-16T16:47:45.638Z,48.90
2018-08-16T16:50:14.108Z,49.70
2018-08-16T16:52:42.717Z,49.40
2018-08-16T16:55:11.249Z,49.60
2018-08-16T16:57:39.744Z,49.50
2018-08-16T17:00:08.979Z,49.60
2018-08-16T17:02:37.392Z,49.90
2018-08-16T17:05:05.963Z,49.60
2018-08-16T17:07:34.459Z,50.20
2018-08-16T17:10:02.951Z,49.60
2018-08-16T17:12:31.389Z,48.50
2018-08-16T17:14:59.804Z,48.50
2018-08-16T17:17:28.322Z,48.60
2018-08-16T17:19:56.781Z,49.30
2018-08-16T17:22:25.205Z,50.10
2018-08-16T17:24:53.555Z,49.90
2018-08-16T17:27:21.989Z,49.90
2018-08-16T17:29:50.338Z,50.50
2018-08-16T17:32:18.695Z,50.60
2018-08-16T17:34:47.148Z,51.50
2018-08-16T17:37:15.520Z,51.90
2018-08-16T17:39:43.965Z,51.70
2018-08-16T17:42:12.492Z,52.20
2018-08-16T17:44:40.941Z,52.70
2018-08-16T17:47:09.533Z,53.20
2018-08-16T17:49:37.841Z,52.50
2018-08-16T17:52:06.288Z,52.60
2018-08-16T17:54:34.735Z,52.30
2018-08-16T17:57:03.180Z,52.40
2018-08-16T17:59:31.601Z,52.30
2018-08-16T18:02:00.040Z,52.30
2018-08-16T18:04:28.461Z,52.90
2018-08-16T18:06:57.047Z,53.50
2018-08-16T18:09:25.490Z,53.30
2018-08-16T18:11:54.009Z,55.90
2018-08-16T18:14:22.593Z,55.60
2018-08-16T18:16:50.947Z,56.00
2018-08-16T18:19:19.426Z,56.10
2018-08-16T18:21:47.930Z,57.50
2018-08-16T18:24:16.498Z,58.20
2018-08-16T18:26:44.874Z,59.70
2018-08-16T18:29:13.285Z,60.30
2018-08-16T18:31:41.678Z,60.50
2018-08-16T18:34:10.145Z,61.20
2018-08-16T18:36:38.735Z,63.80
2018-08-16T18:39:08.341Z,64.20
2018-08-16T18:41:37.009Z,64.20
2018-08-16T18:44:05.561Z,64.70
2018-08-16T18:46:33.960Z,66.60
2018-08-16T18:49:02.246Z,66.90
2018-08-16T18:51:30.624Z,67.50
2018-08-16T18:53:59.076Z,65.50
2018-08-16T18:56:27.391Z,71.30
2018-08-16T18:58:55.743Z,69.00
2018-08-16T19:01:24.083Z,69.40
2018-08-16T19:03:52.480Z,69.20
2018-08-16T19:06:20.898Z,70.10
2018-08-16T19:08:49.313Z,73.10
2018-08-16T19:11:17.769Z,74.20
2018-08-16T19:13:46.159Z,77.00
2018-08-16T19:16:14.540Z,79.40
2018-08-16T19:18:42.962Z,79.60
2018-08-16T19:21:11.310Z,83.20
2018-08-16T19:23:39.715Z,79.50
2018-08-16T19:26:08.132Z,82.80
2018-08-16T19:28:36.475Z,82.70
2018-08-16T19:31:04.858Z,84.90
2018-08-16T19:33:33.304Z,87.30
2018-08-16T19:36:01.793Z,88.10
2018-08-16T19:38:30.177Z,90.20
2018-08-16T19:40:58.518Z,91.10
2018-08-16T19:43:26.907Z,90.90
2018-08-16T19:45:55.231Z,92.40
2018-08-16T19:48:23.638Z,94.50
2018-08-16T19:50:51.975Z,97.20
2018-08-16T19:53:20.319Z,99.90
2018-08-16T19:55:48.687Z,99.90
2018-08-16T19:58:17.111Z,99.90
2018-08-16T20:00:45.489Z,99.90
2018-08-16T20:03:13.852Z,99.90
2018-08-16T20:05:42.153Z,99.90
2018-08-16T20:08:10.519Z,99.90
2018-08-16T20:10:38.869Z,99.90
2018-08-16T20:13:07.286Z,99.90
2018-08-16T20:15:35.686Z,99.90
2018-08-16T20:18:04.143Z,99.90
2018-08-16T20:20:32.501Z,99.90
2018-08-16T20:23:00.940Z,99.90
2018-08-16T20:25:29.636Z,99.90
2018-08-16T20:27:58.081Z,99.90
2018-08-16T20:30:26.483Z,99.90
2018-08-16T20:32:54.922Z,99.90
2018-08-16T20:35:23.606Z,99.90
2018-08-16T20:37:52.075Z,99.90
2018-08-16T20:40:20.439Z,99.90
2018-08-16T20:42:48.854Z,99.90
2018-08-16T20:45:17.294Z,99.90
2018-08-16T20:47:45.686Z,99.90
2018-08-16T20:50:14.071Z,99.90
2018-08-16T20:52:42.459Z,99.90
2018-08-16T20:55:10.883Z,99.90
2018-08-16T20:57:39.355Z,99.90
2018-08-16T21:00:09.670Z,99.90
2018-08-16T21:02:38.990Z,99.90
2018-08-16T21:05:08.167Z,99.90
2018-08-16T21:07:36.661Z,99.90
2018-08-16T21:10:06.157Z,99.90
2018-08-16T21:12:34.775Z,99.90
2018-08-16T21:15:03.388Z,99.90
2018-08-16T21:17:31.866Z,99.90
2018-08-16T21:20:00.453Z,99.90
2018-08-16T21:22:28.633Z,99.90
2018-08-16T21:24:56.865Z,99.90
2018-08-16T21:27:25.352Z,99.90
2018-08-16T21:29:53.585Z,99.90
2018-08-16T21:32:21.751Z,99.90
2018-08-16T21:34:49.964Z,99.90
2018-08-16T21:37:18.153Z,99.90
2018-08-16T21:39:46.363Z,99.90
2018-08-16T21:42:14.534Z,99.90
2018-08-16T21:44:42.725Z,99.90
2018-08-16T21:47:10.867Z,99.90
2018-08-16T21:49:39.079Z,99.90
2018-08-16T21:52:07.277Z,99.90
2018-08-16T21:54:35.430Z,99.90
2018-08-16T21:57:03.577Z,99.90
2018-08-16T21:59:31.776Z,99.90
2018-08-16T22:02:00.002Z,99.90
2018-08-16T22:04:28.211Z,99.90
2018-08-16T22:07:02.326Z,99.90
2018-08-16T22:09:30.550Z,99.90
2018-08-16T22:11:58.746Z,99.90
2018-08-16T22:14:26.987Z,99.90
2018-08-16T22:16:55.206Z,99.90
2018-08-16T22:19:23.422Z,99.90
2018-08-16T22:21:51.679Z,99.90
2018-08-16T22:24:20.008Z,99.90
2018-08-16T22:26:48.207Z,99.90
2018-08-16T22:29:16.462Z,99.90
2018-08-16T22:31:44.683Z,99.90
2018-08-16T22:34:12.841Z,99.90
2018-08-16T22:36:41.070Z,99.90
2018-08-16T22:39:11.162Z,99.90
2018-08-16T22:41:39.500Z,99.90
2018-08-16T22:44:07.846Z,99.90
2018-08-16T22:46:36.091Z,99.90
2018-08-16T22:49:04.293Z,99.90
2018-08-16T22:51:32.576Z,99.90
2018-08-16T22:54:00.790Z,99.90
2018-08-16T22:56:28.981Z,99.90
2018-08-16T22:58:57.228Z,99.90
2018-08-16T23:01:25.437Z,99.90
2018-08-16T23:03:53.694Z,99.90
2018-08-16T23:06:21.877Z,99.90
2018-08-16T23:08:50.127Z,99.90
2018-08-16T23:11:18.319Z,99.90
2018-08-16T23:13:46.544Z,99.90
2018-08-16T23:16:14.709Z,99.90
2018-08-16T23:18:42.882Z,99.90
2018-08-16T23:21:11.039Z,99.90
2018-08-16T23:23:39.188Z,99.90
2018-08-16T23:26:07.435Z,99.90
2018-08-16T23:28:35.642Z,99.90
2018-08-16T23:31:03.874Z,99.90
2018-08-16T23:33:32.373Z,99.90
2018-08-16T23:36:00.554Z,99.90
2018-08-16T23:38:28.749Z,99.90
2018-08-16T23:40:57.048Z,99.90
2018-08-16T23:43:25.256Z,99.90
2018-08-16T23:45:53.472Z,99.90
2018-08-16T23:48:27.794Z,99.90
2018-08-16T23:50:56.041Z,99.90
2018-08-16T23:53:24.243Z,99.90
2018-08-16T23:55:52.532Z,99.90
2018-08-16T23:58:20.843Z,99.90
